Time;durP1;ratioP1;P1;durP2;ratioP2;P2;SDS_P1;SDS_P2;PMS_P1;PMS_P2;Temp;Humidity;BMP_temperature;BMP_pressure;BME280_temperature;BME280_humidity;BME280_pressure;Samples;Min_cycle;Max_cycle;Signal;HPM_P1;HPM_P2
2023/10/31 00:02:19;;;;;;;4.57;1.38;;;20.30;70.60;;;;;;5094297;28;20519;-63
2023/10/31 00:04:45;;;;;;;3.58;1.25;;;20.30;70.60;;;;;;5093751;28;20415;-64
2023/10/31 00:07:11;;;;;;;4.22;1.17;;;20.30;70.60;;;;;;5108296;28;20613;-64
2023/10/31 00:09:39;;;;;;;4.72;1.25;;;20.30;70.60;;;;;;5113246;28;20039;-63
2023/10/31 00:12:04;;;;;;;3.42;1.15;;;20.20;70.60;;;;;;5093251;28;20047;-64
2023/10/31 00:14:30;;;;;;;4.53;1.38;;;20.20;70.60;;;;;;5094101;28;20491;-64
2023/10/31 00:16:56;;;;;;;2.45;0.95;;;20.20;70.60;;;;;;5094069;28;20055;-64
2023/10/31 00:19:21;;;;;;;3.15;1.25;;;20.20;70.60;;;;;;5109140;28;20047;-64
2023/10/31 00:21:47;;;;;;;1.70;1.13;;;20.20;70.60;;;;;;5094236;28;20118;-63
2023/10/31 00:24:12;;;;;;;4.65;1.35;;;20.20;71.20;;;;;;5093405;28;20075;-63
2023/10/31 00:26:38;;;;;;;3.45;1.10;;;20.20;70.50;;;;;;5093866;28;20040;-64
2023/10/31 00:29:03;;;;;;;2.95;1.05;;;20.20;70.60;;;;;;5094526;28;20066;-63
2023/10/31 00:31:29;;;;;;;2.65;1.10;;;20.20;70.50;;;;;;5091747;28;20056;-64
2023/10/31 00:33:55;;;;;;;2.63;1.08;;;20.20;70.50;;;;;;5093797;28;20040;-64
2023/10/31 00:36:21;;;;;;;2.78;1.05;;;20.20;70.50;;;;;;5094231;28;20040;-64
2023/10/31 00:38:46;;;;;;;3.58;0.98;;;20.20;70.50;;;;;;5091588;28;20081;-64
2023/10/31 00:41:12;;;;;;;2.65;1.10;;;20.20;70.50;;;;;;5107683;28;20047;-63
2023/10/31 00:43:37;;;;;;;2.30;0.90;;;20.20;70.50;;;;;;5112743;28;20483;-64
2023/10/31 00:46:03;;;;;;;3.47;1.00;;;20.20;70.50;;;;;;5113816;28;20081;-64
2023/10/31 00:48:29;;;;;;;2.63;1.10;;;20.20;70.50;;;;;;5114014;28;20066;-64
2023/10/31 00:50:54;;;;;;;3.00;1.00;;;20.20;70.50;;;;;;5112943;28;20096;-64
2023/10/31 00:53:20;;;;;;;2.75;1.00;;;20.20;70.40;;;;;;5112954;28;20114;-64
2023/10/31 00:55:45;;;;;;;4.55;1.08;;;20.10;70.40;;;;;;5113285;28;20047;-64
2023/10/31 00:58:11;;;;;;;1.77;1.10;;;20.10;70.40;;;;;;5114034;28;20031;-64
2023/10/31 01:00:37;;;;;;;1.88;0.73;;;20.10;70.40;;;;;;5113081;28;20420;-64
2023/10/31 01:03:03;;;;;;;3.33;1.00;;;20.10;70.40;;;;;;5112978;28;20499;-64
2023/10/31 01:05:28;;;;;;;3.67;1.00;;;20.10;70.40;;;;;;5113342;28;20372;-64
2023/10/31 01:07:54;;;;;;;2.05;0.90;;;20.10;70.40;;;;;;5113074;28;20051;-63
2023/10/31 01:10:20;;;;;;;2.17;1.02;;;20.10;70.40;;;;;;5112498;28;20088;-64
2023/10/31 01:12:46;;;;;;;2.65;0.90;;;20.10;70.40;;;;;;5113601;28;20035;-63
2023/10/31 01:15:11;;;;;;;3.10;1.10;;;20.10;71.00;;;;;;5112826;28;20063;-65
2023/10/31 01:17:37;;;;;;;3.55;1.10;;;20.10;70.40;;;;;;5112252;28;20104;-63
2023/10/31 01:20:03;;;;;;;2.72;1.02;;;20.10;70.30;;;;;;5113440;28;20039;-64
2023/10/31 01:22:29;;;;;;;3.60;1.17;;;20.10;70.30;;;;;;5112480;28;20043;-64
2023/10/31 01:24:54;;;;;;;3.88;1.10;;;20.10;70.30;;;;;;5109018;28;20541;-63
2023/10/31 01:27:20;;;;;;;3.42;1.00;;;20.10;70.30;;;;;;5092997;28;20088;-63
2023/10/31 01:29:45;;;;;;;3.45;1.00;;;20.10;70.30;;;;;;5092424;28;20563;-64
2023/10/31 01:32:11;;;;;;;2.85;0.90;;;20.10;70.30;;;;;;5092756;28;20076;-63
2023/10/31 01:34:37;;;;;;;3.13;1.00;;;20.10;70.30;;;;;;5092164;28;20086;-64
2023/10/31 01:37:03;;;;;;;3.28;1.13;;;20.10;70.30;;;;;;5093237;28;20495;-63
2023/10/31 01:39:28;;;;;;;2.92;1.02;;;20.00;70.20;;;;;;5092411;28;20514;-63
2023/10/31 01:41:54;;;;;;;2.40;0.82;;;20.10;70.30;;;;;;5092422;28;20036;-63
2023/10/31 01:44:20;;;;;;;4.32;1.10;;;20.00;70.20;;;;;;5092794;28;20476;-64
2023/10/31 01:46:46;;;;;;;2.35;0.90;;;20.00;70.20;;;;;;5092873;28;20054;-63
2023/10/31 01:49:11;;;;;;;1.67;0.90;;;20.00;70.20;;;;;;5091714;28;20047;-63
2023/10/31 01:51:37;;;;;;;3.17;1.00;;;20.00;70.20;;;;;;5090527;28;20043;-64
2023/10/31 01:54:02;;;;;;;2.75;1.08;;;20.00;70.80;;;;;;5091490;28;20061;-63
2023/10/31 01:56:28;;;;;;;1.88;0.90;;;20.00;70.20;;;;;;5074187;28;20640;-63
2023/10/31 01:58:54;;;;;;;1.50;0.88;;;20.00;70.20;;;;;;5092892;28;20411;-64
2023/10/31 02:01:19;;;;;;;1.80;0.88;;;20.00;70.20;;;;;;5092446;28;20044;-64
2023/10/31 02:03:45;;;;;;;1.67;0.90;;;20.00;70.20;;;;;;5091890;28;20133;-64
2023/10/31 02:06:10;;;;;;;2.42;0.63;;;20.00;70.20;;;;;;5092482;28;20036;-64
2023/10/31 02:08:36;;;;;;;1.42;0.80;;;20.00;70.20;;;;;;5092749;28;20044;-64
2023/10/31 02:11:03;;;;;;;2.97;0.90;;;20.00;70.20;;;;;;5091567;28;20399;-64
2023/10/31 02:13:29;;;;;;;2.58;0.82;;;20.00;70.20;;;;;;5107957;28;20093;-63
2023/10/31 02:15:55;;;;;;;2.05;0.90;;;20.00;70.20;;;;;;5092615;28;20064;-64
2023/10/31 02:18:20;;;;;;;2.55;0.80;;;19.90;70.10;;;;;;5091547;28;20127;-63
2023/10/31 02:20:46;;;;;;;1.67;0.90;;;20.00;70.20;;;;;;5092156;28;20040;-63
2023/10/31 02:23:11;;;;;;;2.35;0.85;;;20.00;70.20;;;;;;5092464;28;20403;-64
2023/10/31 02:25:37;;;;;;;2.15;0.85;;;20.00;70.10;;;;;;5091517;28;20040;-63
2023/10/31 02:28:03;;;;;;;2.22;0.93;;;19.90;70.10;;;;;;5092570;28;20072;-63
2023/10/31 02:30:28;;;;;;;1.75;0.80;;;19.90;70.10;;;;;;5108180;28;20052;-63
2023/10/31 02:32:54;;;;;;;1.98;0.82;;;19.90;70.10;;;;;;5090801;28;20040;-64
2023/10/31 02:35:19;;;;;;;1.50;0.70;;;19.90;70.10;;;;;;5107577;28;20407;-64
2023/10/31 02:37:46;;;;;;;1.85;0.88;;;19.90;70.10;;;;;;5092622;28;20040;-63
2023/10/31 02:40:11;;;;;;;1.45;0.80;;;19.90;70.00;;;;;;5091238;28;20475;-64
2023/10/31 02:42:37;;;;;;;1.83;0.80;;;19.90;70.00;;;;;;5091117;28;20044;-64
2023/10/31 02:45:03;;;;;;;1.88;0.77;;;19.90;70.00;;;;;;5091358;28;20051;-63
2023/10/31 02:47:29;;;;;;;1.80;0.80;;;19.90;69.90;;;;;;5092094;28;20085;-64
2023/10/31 02:49:55;;;;;;;2.63;1.05;;;19.90;69.90;;;;;;5091696;28;20161;-64
2023/10/31 02:52:20;;;;;;;1.63;0.80;;;19.90;69.90;;;;;;5091206;28;20135;-64
2023/10/31 02:54:46;;;;;;;1.52;0.68;;;19.90;69.90;;;;;;5092142;28;20487;-64
2023/10/31 02:57:12;;;;;;;1.73;0.88;;;19.90;69.90;;;;;;5092115;28;20387;-64
2023/10/31 02:59:37;;;;;;;1.85;0.60;;;19.90;69.90;;;;;;5091740;28;20126;-64
2023/10/31 03:02:03;;;;;;;0.52;0.43;;;19.90;69.90;;;;;;5093777;28;20040;-64
2023/10/31 03:04:28;;;;;;;3.13;0.73;;;19.90;69.90;;;;;;5094781;28;20048;-64
2023/10/31 03:06:54;;;;;;;2.80;0.70;;;19.90;69.80;;;;;;5094945;28;20093;-64
2023/10/31 03:09:19;;;;;;;1.42;0.70;;;19.90;69.80;;;;;;5095594;28;20040;-64
2023/10/31 03:11:45;;;;;;;2.20;0.68;;;19.80;69.80;;;;;;5095433;28;20138;-64
2023/10/31 03:14:11;;;;;;;1.02;0.60;;;19.80;69.70;;;;;;5094627;28;20079;-64
2023/10/31 03:16:36;;;;;;;1.35;0.70;;;19.80;69.70;;;;;;5095540;28;20052;-64
2023/10/31 03:19:02;;;;;;;1.60;0.70;;;19.80;69.70;;;;;;5094819;28;20054;-64
2023/10/31 03:21:27;;;;;;;1.38;0.52;;;19.80;69.70;;;;;;5094128;28;20040;-64
2023/10/31 03:23:55;;;;;;;1.38;0.80;;;19.80;69.70;;;;;;5095822;28;20039;-64
2023/10/31 03:26:21;;;;;;;1.10;0.55;;;19.80;69.60;;;;;;5095134;28;20031;-64
2023/10/31 03:28:47;;;;;;;1.60;0.70;;;19.80;69.60;;;;;;5093793;28;20101;-65
2023/10/31 03:31:12;;;;;;;1.25;0.60;;;19.80;69.60;;;;;;5094601;28;20102;-64
2023/10/31 03:33:38;;;;;;;2.05;0.80;;;19.80;69.60;;;;;;5110579;28;20475;-63
2023/10/31 03:36:04;;;;;;;2.35;0.60;;;19.80;69.50;;;;;;5091803;28;20044;-63
2023/10/31 03:38:31;;;;;;;3.13;0.73;;;19.80;69.50;;;;;;5094356;28;20070;-64
2023/10/31 03:40:56;;;;;;;1.17;0.63;;;19.80;69.50;;;;;;5092872;28;20052;-64
2023/10/31 03:43:22;;;;;;;0.93;0.50;;;19.80;69.50;;;;;;5094123;28;20040;-64
2023/10/31 03:45:47;;;;;;;1.00;0.50;;;19.80;69.50;;;;;;5095439;28;20040;-63
2023/10/31 03:48:13;;;;;;;0.88;0.50;;;19.80;69.40;;;;;;5093861;28;20097;-63
2023/10/31 03:50:39;;;;;;;1.98;0.60;;;19.80;69.40;;;;;;5094733;28;20441;-64
2023/10/31 03:53:04;;;;;;;1.70;0.50;;;19.70;69.40;;;;;;5110836;28;20047;-64
2023/10/31 03:55:30;;;;;;;1.60;0.65;;;19.70;69.30;;;;;;5094183;28;20036;-63
2023/10/31 03:57:56;;;;;;;0.85;0.40;;;19.70;69.20;;;;;;5094967;28;20446;-64
2023/10/31 04:00:21;;;;;;;1.27;0.43;;;19.70;69.20;;;;;;5118954;27;20039;-64
2023/10/31 04:02:47;;;;;;;1.33;0.50;;;19.70;69.20;;;;;;5113266;28;20075;-64
2023/10/31 04:05:12;;;;;;;0.93;0.50;;;19.70;69.20;;;;;;5114215;28;20390;-64
2023/10/31 04:07:38;;;;;;;2.00;0.70;;;19.70;69.20;;;;;;5114596;28;20138;-64
2023/10/31 04:10:04;;;;;;;0.70;0.43;;;19.70;69.20;;;;;;5108801;28;20044;-64
2023/10/31 04:12:30;;;;;;;1.48;0.65;;;19.70;69.20;;;;;;5094053;28;20040;-63
2023/10/31 04:14:55;;;;;;;0.98;0.57;;;19.70;69.20;;;;;;5093603;28;20046;-63
2023/10/31 04:17:21;;;;;;;1.35;0.60;;;19.70;69.10;;;;;;5091277;28;20129;-64
2023/10/31 04:19:46;;;;;;;1.40;0.60;;;19.70;69.20;;;;;;5109620;28;20051;-64
2023/10/31 04:22:12;;;;;;;1.33;0.60;;;19.70;69.10;;;;;;5094401;28;20047;-64
2023/10/31 04:24:37;;;;;;;0.95;0.43;;;19.70;69.10;;;;;;5093559;28;20537;-63
2023/10/31 04:27:03;;;;;;;2.63;0.60;;;19.70;69.10;;;;;;5094646;28;20108;-64
2023/10/31 04:29:28;;;;;;;1.73;0.68;;;19.70;69.00;;;;;;5094003;28;20039;-64
2023/10/31 04:31:54;;;;;;;1.02;0.57;;;19.70;69.00;;;;;;5093390;28;20040;-64
2023/10/31 04:34:20;;;;;;;0.70;0.40;;;19.80;69.10;;;;;;5093633;28;20036;-64
2023/10/31 04:36:45;;;;;;;1.75;0.75;;;19.80;69.00;;;;;;5109886;28;20493;-64
2023/10/31 04:39:11;;;;;;;1.63;0.60;;;19.80;69.00;;;;;;5100170;28;20067;-64
2023/10/31 04:41:36;;;;;;;1.70;0.60;;;19.80;68.90;;;;;;5114153;28;20114;-64
2023/10/31 04:44:02;;;;;;;1.92;0.60;;;19.80;68.90;;;;;;5113226;28;20047;-64
2023/10/31 04:46:28;;;;;;;2.38;0.55;;;19.80;68.90;;;;;;5112381;28;20343;-64
2023/10/31 04:48:53;;;;;;;1.35;0.55;;;19.80;68.90;;;;;;5114184;28;20120;-64
2023/10/31 04:51:19;;;;;;;1.38;0.52;;;19.80;68.90;;;;;;5113528;28;20104;-65
2023/10/31 04:53:45;;;;;;;1.38;0.47;;;19.80;68.80;;;;;;5112641;28;20043;-64
2023/10/31 04:56:14;;;;;;;1.38;0.50;;;19.80;68.80;;;;;;5113906;28;20042;-64
2023/10/31 04:58:43;;;;;;;2.13;0.40;;;19.90;68.80;;;;;;5113556;28;20529;-64
2023/10/31 05:01:12;;;;;;;1.35;0.50;;;19.80;68.70;;;;;;5113745;28;20047;-64
2023/10/31 05:03:38;;;;;;;0.70;0.40;;;19.90;68.70;;;;;;5113904;28;20082;-64
2023/10/31 05:06:04;;;;;;;1.23;0.40;;;19.90;68.70;;;;;;5111880;28;20035;-64
2023/10/31 05:08:30;;;;;;;1.60;0.50;;;19.90;68.70;;;;;;5113814;28;20040;-64
2023/10/31 05:10:56;;;;;;;1.20;0.45;;;19.90;68.60;;;;;;5114094;28;20043;-64
2023/10/31 05:13:22;;;;;;;1.13;0.55;;;19.90;68.70;;;;;;5112978;28;20082;-64
2023/10/31 05:15:47;;;;;;;0.73;0.50;;;19.90;68.60;;;;;;5112179;28;20083;-64
2023/10/31 05:18:13;;;;;;;1.10;0.50;;;19.90;68.60;;;;;;5113610;28;20101;-64
2023/10/31 05:20:38;;;;;;;0.70;0.38;;;19.90;68.60;;;;;;5113181;28;20040;-64
2023/10/31 05:23:04;;;;;;;0.98;0.40;;;19.90;68.60;;;;;;5114009;28;20044;-64
2023/10/31 05:25:30;;;;;;;1.20;0.60;;;19.90;68.60;;;;;;5111969;28;20077;-64
2023/10/31 05:27:55;;;;;;;1.05;0.32;;;19.90;68.60;;;;;;5111549;28;20050;-64
2023/10/31 05:30:21;;;;;;;0.90;0.40;;;19.90;68.60;;;;;;5111931;28;20127;-64
2023/10/31 05:32:46;;;;;;;1.55;0.40;;;19.90;68.60;;;;;;5113608;28;20062;-64
2023/10/31 05:35:12;;;;;;;2.15;0.40;;;19.90;68.60;;;;;;5112332;28;20059;-64
2023/10/31 05:37:38;;;;;;;1.45;0.38;;;19.90;68.60;;;;;;5112422;28;20486;-64
2023/10/31 05:40:04;;;;;;;1.63;0.50;;;19.90;68.50;;;;;;5113443;28;20467;-64
2023/10/31 05:42:30;;;;;;;1.27;0.70;;;19.90;68.60;;;;;;5096386;28;20442;-64
2023/10/31 05:44:56;;;;;;;0.95;0.50;;;19.90;68.50;;;;;;5091270;28;20036;-64
2023/10/31 05:47:22;;;;;;;0.75;0.40;;;19.90;68.50;;;;;;5092560;28;20093;-64
2023/10/31 05:49:48;;;;;;;1.95;0.45;;;19.90;68.60;;;;;;5092481;28;20097;-64
2023/10/31 05:52:13;;;;;;;0.73;0.40;;;19.90;68.50;;;;;;5091184;28;20040;-64
2023/10/31 05:54:39;;;;;;;0.75;0.30;;;19.90;68.60;;;;;;5092494;28;20048;-64
2023/10/31 05:57:04;;;;;;;1.20;0.50;;;19.90;68.60;;;;;;5092424;28;20089;-64
2023/10/31 05:59:30;;;;;;;1.45;0.50;;;19.90;68.60;;;;;;5091357;28;20040;-64
2023/10/31 06:01:56;;;;;;;0.95;0.40;;;19.90;68.60;;;;;;5092232;28;20050;-64
2023/10/31 06:04:22;;;;;;;1.45;0.40;;;19.90;68.60;;;;;;5092802;28;20048;-64
2023/10/31 06:06:47;;;;;;;0.90;0.30;;;19.90;68.60;;;;;;5093037;28;20063;-63
2023/10/31 06:09:14;;;;;;;1.52;0.40;;;19.80;68.50;;;;;;5098622;28;20035;-64
2023/10/31 06:11:43;;;;;;;2.20;0.35;;;19.80;68.50;;;;;;5112411;28;20046;-63
2023/10/31 06:14:09;;;;;;;0.98;0.35;;;19.80;68.50;;;;;;5110195;28;20048;-64
2023/10/31 06:16:40;;;;;;;1.95;0.45;;;19.80;68.50;;;;;;5110971;28;20051;-64
2023/10/31 06:19:06;;;;;;;1.55;0.55;;;19.80;68.50;;;;;;5113014;28;20079;-64
2023/10/31 06:21:31;;;;;;;0.98;0.50;;;19.90;68.60;;;;;;5112384;28;20086;-64
2023/10/31 06:23:57;;;;;;;0.88;0.40;;;19.80;68.50;;;;;;5112271;28;20050;-63
2023/10/31 06:26:22;;;;;;;1.70;0.40;;;19.80;68.50;;;;;;5112453;28;20055;-64
2023/10/31 06:28:48;;;;;;;1.30;0.40;;;19.80;68.50;;;;;;5112912;28;20054;-64
2023/10/31 06:31:13;;;;;;;1.25;0.50;;;19.80;68.50;;;;;;5111958;28;20039;-63
2023/10/31 06:33:39;;;;;;;3.55;0.50;;;19.80;68.50;;;;;;5112123;28;20065;-67
2023/10/31 06:36:06;;;;;;;2.20;0.32;;;19.80;68.50;;;;;;5113010;28;20508;-63
2023/10/31 06:38:32;;;;;;;1.60;0.40;;;19.80;68.50;;;;;;5115511;28;20094;-62
2023/10/31 06:40:57;;;;;;;1.00;0.40;;;19.80;68.50;;;;;;5116496;28;20105;-62
2023/10/31 06:43:23;;;;;;;2.05;0.40;;;19.80;68.50;;;;;;5116105;28;20054;-62
2023/10/31 06:45:48;;;;;;;1.25;0.40;;;19.90;68.40;;;;;;5116429;28;20036;-62
2023/10/31 06:48:14;;;;;;;2.70;0.60;;;19.90;68.40;;;;;;5116539;28;20043;-62
2023/10/31 06:50:39;;;;;;;1.08;0.40;;;19.90;68.40;;;;;;5115168;28;20050;-62
2023/10/31 06:53:05;;;;;;;0.68;0.35;;;19.90;68.40;;;;;;5116097;28;20046;-63
2023/10/31 06:55:30;;;;;;;1.45;0.35;;;19.90;68.50;;;;;;5114789;28;20046;-61
2023/10/31 06:57:56;;;;;;;1.92;0.35;;;19.90;68.50;;;;;;5116108;28;20058;-62
2023/10/31 07:00:21;;;;;;;2.22;0.80;;;19.90;68.50;;;;;;5115421;28;20461;-63
2023/10/31 07:02:47;;;;;;;1.25;0.43;;;19.90;68.50;;;;;;5116560;28;20387;-62
2023/10/31 07:05:13;;;;;;;5.97;0.40;;;19.90;68.50;;;;;;5115351;28;20104;-62
2023/10/31 07:07:39;;;;;;;14.43;1.23;;;19.90;68.60;;;;;;5116598;28;20040;-62
2023/10/31 07:10:05;;;;;;;4.10;0.88;;;19.90;68.60;;;;;;5116215;28;20376;-62
2023/10/31 07:12:31;;;;;;;12.00;1.27;;;19.90;68.70;;;;;;5115511;28;20074;-62
2023/10/31 07:14:58;;;;;;;9.77;1.30;;;19.90;68.80;;;;;;5116160;28;20078;-66
2023/10/31 07:17:24;;;;;;;12.18;1.63;;;20.00;68.80;;;;;;5114666;28;20059;-65
2023/10/31 07:19:50;;;;;;;10.45;1.35;;;20.00;68.80;;;;;;5114779;28;20526;-65
2023/10/31 07:22:15;;;;;;;12.18;2.45;;;20.00;68.70;;;;;;5115521;28;20043;-62
2023/10/31 07:24:41;;;;;;;9.57;1.73;;;20.00;68.80;;;;;;5115985;28;20047;-61
2023/10/31 07:27:06;;;;;;;7.65;1.20;;;20.00;68.80;;;;;;5115336;28;20505;-61
2023/10/31 07:29:32;;;;;;;13.85;1.30;;;20.00;68.90;;;;;;5114338;28;20036;-61
2023/10/31 07:31:57;;;;;;;8.52;1.25;;;20.00;68.90;;;;;;5115890;28;20051;-62
2023/10/31 07:34:23;;;;;;;8.18;1.33;;;20.00;68.90;;;;;;5114050;28;20055;-61
2023/10/31 07:36:49;;;;;;;8.05;1.65;;;20.10;69.00;;;;;;5115579;28;20562;-62
2023/10/31 07:39:14;;;;;;;8.50;1.30;;;20.10;69.10;;;;;;5115341;28;20043;-61
2023/10/31 07:41:40;;;;;;;9.13;1.40;;;20.10;69.10;;;;;;5114313;28;20043;-61
2023/10/31 07:44:06;;;;;;;8.25;1.10;;;20.10;69.10;;;;;;5115902;28;20036;-62
2023/10/31 07:46:32;;;;;;;9.50;1.25;;;20.10;69.00;;;;;;5115239;28;20036;-63
2023/10/31 07:48:58;;;;;;;6.70;1.33;;;20.10;69.10;;;;;;5106817;28;20388;-62
2023/10/31 07:51:23;;;;;;;5.00;1.00;;;20.10;69.10;;;;;;5110332;28;20040;-61
2023/10/31 07:53:49;;;;;;;5.88;1.42;;;20.10;69.10;;;;;;5112806;28;20036;-60
2023/10/31 07:56:16;;;;;;;5.43;1.33;;;20.20;69.10;;;;;;5113620;28;20070;-61
2023/10/31 07:58:41;;;;;;;8.48;1.42;;;20.10;69.00;;;;;;5113863;28;20036;-61
2023/10/31 08:01:10;;;;;;;6.15;1.13;;;20.20;69.00;;;;;;5107492;28;20441;-60
2023/10/31 08:03:37;;;;;;;4.75;1.15;;;20.20;69.00;;;;;;5105394;28;20036;-60
2023/10/31 08:06:03;;;;;;;7.70;1.45;;;20.20;69.00;;;;;;5114569;27;20441;-60
2023/10/31 08:08:29;;;;;;;7.55;1.20;;;20.20;69.00;;;;;;5110078;28;20396;-59
2023/10/31 08:10:57;;;;;;;9.07;1.30;;;20.20;68.90;;;;;;5110851;28;20457;-63
2023/10/31 08:13:22;;;;;;;5.57;1.48;;;20.20;68.80;;;;;;5113986;28;20043;-60
2023/10/31 08:15:48;;;;;;;12.40;1.40;;;20.20;69.30;;;;;;5113379;28;20048;-60
2023/10/31 08:18:13;;;;;;;4.38;1.40;;;20.20;68.60;;;;;;5113000;28;20440;-61
2023/10/31 08:20:39;;;;;;;6.07;1.55;;;20.20;68.60;;;;;;5113611;27;20035;-61
2023/10/31 08:23:04;;;;;;;6.75;1.63;;;20.20;68.50;;;;;;5112992;28;20047;-60
2023/10/31 08:25:30;;;;;;;6.18;1.40;;;20.20;68.60;;;;;;5114260;28;20039;-60
2023/10/31 08:27:56;;;;;;;5.32;1.35;;;20.20;68.60;;;;;;5114553;28;20131;-60
2023/10/31 08:30:22;;;;;;;5.03;1.23;;;20.20;68.70;;;;;;5113727;28;20074;-60
2023/10/31 08:32:47;;;;;;;6.18;1.60;;;20.20;68.80;;;;;;5114747;28;20063;-60
2023/10/31 08:35:13;;;;;;;6.30;1.98;;;20.20;68.90;;;;;;5112990;28;20047;-65
2023/10/31 08:37:39;;;;;;;8.55;1.75;;;20.30;68.90;;;;;;5112016;28;20044;-62
2023/10/31 08:40:05;;;;;;;10.50;1.95;;;20.30;68.80;;;;;;5112367;28;20051;-60
2023/10/31 08:42:31;;;;;;;7.78;1.67;;;20.30;68.80;;;;;;5112557;28;20055;-60
2023/10/31 08:44:56;;;;;;;4.80;1.60;;;20.30;68.80;;;;;;5112655;28;20039;-60
2023/10/31 08:47:22;;;;;;;6.53;1.70;;;20.30;68.80;;;;;;5112374;28;20054;-60
2023/10/31 08:49:48;;;;;;;5.20;1.48;;;20.30;68.70;;;;;;5113915;28;20399;-60
2023/10/31 08:52:14;;;;;;;5.43;1.70;;;20.30;68.70;;;;;;5113284;28;20483;-61
2023/10/31 08:54:39;;;;;;;7.65;1.83;;;20.30;68.70;;;;;;5113852;28;20375;-60
2023/10/31 08:57:05;;;;;;;5.53;1.77;;;20.30;68.70;;;;;;5112505;28;20101;-60
2023/10/31 08:59:30;;;;;;;5.15;1.35;;;20.30;68.70;;;;;;5112672;28;20051;-60
2023/10/31 09:01:56;;;;;;;6.82;2.22;;;20.30;68.70;;;;;;5114056;28;20122;-60
2023/10/31 09:04:22;;;;;;;5.85;1.73;;;20.30;68.70;;;;;;5112253;28;20456;-60
2023/10/31 09:06:47;;;;;;;4.88;1.40;;;20.30;68.70;;;;;;5113457;28;20075;-60
2023/10/31 09:09:13;;;;;;;8.13;1.63;;;20.30;68.70;;;;;;5112542;28;20490;-60
2023/10/31 09:11:39;;;;;;;5.13;1.50;;;20.30;68.70;;;;;;5111295;28;20083;-60
2023/10/31 09:14:04;;;;;;;7.93;1.73;;;20.30;68.70;;;;;;5112462;28;20044;-61
2023/10/31 09:16:30;;;;;;;6.30;1.77;;;20.30;68.60;;;;;;5107779;28;20437;-61
2023/10/31 09:18:55;;;;;;;5.43;1.77;;;20.30;68.70;;;;;;5100344;28;20044;-61
2023/10/31 09:21:21;;;;;;;3.95;1.60;;;20.30;68.60;;;;;;5101748;28;20047;-61
2023/10/31 09:23:47;;;;;;;5.97;1.50;;;20.30;68.60;;;;;;5094635;28;20073;-60
2023/10/31 09:26:13;;;;;;;3.20;1.33;;;20.30;68.60;;;;;;5097124;28;20044;-61
2023/10/31 09:28:40;;;;;;;7.35;2.13;;;20.30;68.60;;;;;;5108329;28;20390;-61
2023/10/31 09:31:05;;;;;;;5.13;1.40;;;20.30;68.60;;;;;;5118461;27;20445;-60
2023/10/31 09:33:31;;;;;;;6.07;1.60;;;20.30;68.60;;;;;;5110767;28;20474;-60
2023/10/31 09:35:57;;;;;;;4.65;1.30;;;20.30;69.20;;;;;;5112890;28;20043;-60
2023/10/31 09:38:23;;;;;;;3.72;1.27;;;20.30;68.60;;;;;;5111723;28;20044;-60
2023/10/31 09:40:49;;;;;;;5.07;1.40;;;20.30;68.60;;;;;;5112072;28;20039;-60
2023/10/31 09:43:15;;;;;;;4.53;1.50;;;20.30;68.60;;;;;;5111312;28;20122;-60
2023/10/31 09:45:41;;;;;;;4.85;1.67;;;20.30;68.60;;;;;;5112860;28;20177;-61
2023/10/31 09:48:07;;;;;;;4.82;1.27;;;20.30;68.60;;;;;;5110988;28;20050;-60
2023/10/31 09:50:32;;;;;;;4.72;1.20;;;20.30;68.60;;;;;;5112460;28;20032;-60
2023/10/31 09:52:58;;;;;;;4.68;1.25;;;20.30;68.50;;;;;;5094247;28;20504;-60
2023/10/31 09:55:23;;;;;;;3.97;1.17;;;20.30;68.60;;;;;;5089337;28;20038;-61
2023/10/31 09:57:49;;;;;;;5.45;0.95;;;20.30;68.50;;;;;;5091164;28;20075;-61
2023/10/31 10:00:15;;;;;;;3.13;1.38;;;20.30;68.40;;;;;;5074002;28;20390;-61
2023/10/31 10:02:40;;;;;;;3.85;1.10;;;20.30;68.40;;;;;;5090993;28;20046;-60
2023/10/31 10:05:07;;;;;;;2.72;1.13;;;20.30;68.30;;;;;;5092802;28;20044;-61
2023/10/31 10:07:33;;;;;;;2.45;1.17;;;20.30;68.30;;;;;;5073966;28;20056;-60
2023/10/31 10:10:00;;;;;;;3.40;1.30;;;20.30;68.30;;;;;;5108455;28;20039;-61
2023/10/31 10:12:26;;;;;;;2.20;0.95;;;20.30;68.20;;;;;;5094775;28;20048;-61
2023/10/31 10:14:51;;;;;;;3.60;1.30;;;20.30;68.20;;;;;;5078601;28;20040;-61
2023/10/31 10:17:24;;;;;;;2.58;0.85;;;20.30;68.30;;;;;;5094689;28;20048;-61
2023/10/31 10:20:05;;;;;;;3.72;1.00;;;20.30;68.30;;;;;;5095410;28;20123;-61
2023/10/31 10:22:30;;;;;;;5.53;1.20;;;20.30;68.30;;;;;;5094478;28;20147;-61
2023/10/31 10:24:56;;;;;;;3.33;1.02;;;20.30;68.30;;;;;;5112048;28;20035;-61
2023/10/31 10:27:21;;;;;;;2.75;0.82;;;20.30;68.30;;;;;;5096492;28;20051;-61
2023/10/31 10:29:47;;;;;;;3.97;0.80;;;20.20;68.30;;;;;;5094913;28;20127;-61
2023/10/31 10:32:12;;;;;;;4.00;0.93;;;20.20;68.30;;;;;;5110575;28;20039;-60
2023/10/31 10:34:38;;;;;;;4.28;0.90;;;20.20;68.30;;;;;;5116675;28;20040;-61
2023/10/31 10:37:05;;;;;;;3.30;0.85;;;20.20;68.30;;;;;;5112865;28;20024;-62
2023/10/31 10:39:31;;;;;;;3.50;0.80;;;20.20;68.30;;;;;;5111979;28;20058;-60
2023/10/31 10:41:58;;;;;;;2.67;0.77;;;20.20;68.30;;;;;;5114644;28;20040;-61
2023/10/31 10:44:33;;;;;;;4.63;1.02;;;20.20;68.30;;;;;;5113654;28;20364;-61
2023/10/31 10:47:01;;;;;;;2.38;0.70;;;20.20;68.30;;;;;;5113721;28;20067;-61
2023/10/31 10:49:27;;;;;;;4.10;1.00;;;20.20;68.30;;;;;;5114224;28;20050;-61
2023/10/31 10:51:58;;;;;;;3.83;0.90;;;20.20;68.40;;;;;;5114516;28;20043;-61
2023/10/31 10:54:33;;;;;;;3.30;0.82;;;20.20;68.40;;;;;;5114618;28;20040;-61
2023/10/31 10:57:03;;;;;;;1.95;0.60;;;20.20;68.40;;;;;;5089971;28;20064;-61
2023/10/31 10:59:53;;;;;;;2.17;1.08;;;20.20;68.50;;;;;;5113686;28;20065;-61
2023/10/31 11:02:19;;;;;;;2.90;0.63;;;20.20;68.50;;;;;;5114634;28;20040;-61
2023/10/31 11:04:45;;;;;;;4.32;0.77;;;20.10;68.50;;;;;;5113020;28;20368;-61
2023/10/31 11:07:11;;;;;;;2.72;0.98;;;20.10;68.50;;;;;;5079462;28;20104;-61
2023/10/31 11:09:40;;;;;;;2.38;0.60;;;20.10;68.60;;;;;;5115563;28;20086;-60
2023/10/31 11:12:06;;;;;;;1.92;0.55;;;20.10;68.50;;;;;;5113507;28;20387;-61
2023/10/31 11:14:32;;;;;;;2.70;0.60;;;20.10;68.60;;;;;;5097467;28;20067;-60
2023/10/31 11:17:01;;;;;;;1.88;1.00;;;20.10;68.60;;;;;;5097014;28;20086;-60
2023/10/31 11:19:27;;;;;;;1.58;0.70;;;20.10;68.60;;;;;;5113876;28;20035;-60
2023/10/31 11:21:54;;;;;;;1.25;0.50;;;20.10;68.60;;;;;;5113950;28;20568;-60
2023/10/31 11:24:22;;;;;;;2.15;0.68;;;20.10;68.70;;;;;;5113738;28;20043;-61
2023/10/31 11:26:52;;;;;;;1.67;0.52;;;20.10;68.70;;;;;;5114060;28;20542;-60
2023/10/31 11:29:18;;;;;;;2.33;0.60;;;20.10;68.70;;;;;;5115488;28;20054;-61
2023/10/31 11:31:43;;;;;;;3.05;0.68;;;20.10;68.70;;;;;;5114602;28;20040;-63
2023/10/31 11:34:09;;;;;;;6.45;1.13;;;20.10;68.80;;;;;;5115186;28;20063;-63
2023/10/31 11:36:38;;;;;;;2.65;0.60;;;20.10;68.80;;;;;;5114580;28;20062;-62
2023/10/31 11:39:14;;;;;;;3.75;0.68;;;20.10;68.90;;;;;;5113962;28;20406;-62
2023/10/31 11:41:39;;;;;;;3.60;1.02;;;20.10;69.10;;;;;;5114214;28;20078;-64
2023/10/31 11:44:05;;;;;;;3.08;0.70;;;20.10;69.20;;;;;;5115459;28;20059;-61
2023/10/31 11:46:30;;;;;;;1.80;0.73;;;20.20;69.30;;;;;;5114220;28;20471;-61
2023/10/31 11:48:57;;;;;;;4.00;0.70;;;20.10;69.30;;;;;;5115318;28;20055;-67
2023/10/31 11:51:22;;;;;;;3.60;0.50;;;20.10;69.20;;;;;;5115023;28;20558;-61
2023/10/31 11:53:49;;;;;;;3.75;0.73;;;20.20;69.30;;;;;;5113208;28;20122;-61
2023/10/31 11:56:15;;;;;;;1.27;0.52;;;20.20;69.40;;;;;;5115254;28;20047;-61
2023/10/31 11:58:41;;;;;;;3.95;0.77;;;20.20;69.40;;;;;;5114395;28;20036;-61
2023/10/31 12:01:10;;;;;;;3.08;0.65;;;20.20;69.50;;;;;;5114270;28;20048;-61
2023/10/31 12:03:42;;;;;;;3.33;0.70;;;20.20;69.60;;;;;;5114758;28;20047;-61
2023/10/31 12:06:08;;;;;;;4.82;0.80;;;20.20;69.60;;;;;;5115167;28;20126;-62
2023/10/31 12:08:36;;;;;;;4.60;0.60;;;20.20;69.70;;;;;;5114589;28;20054;-62
2023/10/31 12:11:22;;;;;;;2.15;0.60;;;20.20;69.70;;;;;;5114422;28;20035;-61
2023/10/31 12:14:01;;;;;;;3.83;0.57;;;20.20;69.60;;;;;;5114244;28;20510;-61
2023/10/31 12:16:31;;;;;;;5.85;0.80;;;20.10;70.40;;;;;;5111786;28;20085;-61
2023/10/31 12:19:01;;;;;;;4.93;0.75;;;20.10;69.80;;;;;;5114155;28;20043;-61
2023/10/31 12:21:39;;;;;;;3.58;0.70;;;20.10;69.90;;;;;;5113675;28;20047;-61
2023/10/31 12:24:09;;;;;;;5.43;0.90;;;20.10;70.00;;;;;;5112419;28;20467;-61
2023/10/31 12:26:35;;;;;;;3.88;0.70;;;20.20;70.10;;;;;;5114229;28;20032;-62
2023/10/31 12:29:16;;;;;;;5.90;0.68;;;20.10;70.10;;;;;;5112968;28;20036;-62
2023/10/31 12:31:45;;;;;;;3.47;0.65;;;20.20;70.20;;;;;;5113752;28;20035;-61
2023/10/31 12:34:11;;;;;;;3.80;0.70;;;20.20;70.20;;;;;;5112847;28;20039;-61
2023/10/31 12:36:36;;;;;;;5.25;0.63;;;20.20;70.20;;;;;;5113473;28;20081;-61
2023/10/31 12:39:03;;;;;;;4.40;0.68;;;20.20;70.30;;;;;;5095985;28;20051;-62
2023/10/31 12:41:29;;;;;;;4.53;0.60;;;20.20;70.20;;;;;;5112845;28;20044;-62